createdAt,value
2019-03-20T00:01:13.760Z,75.20
2019-03-20T00:03:44.514Z,75.30
2019-03-20T00:06:15.312Z,75.20
2019-03-20T00:08:45.987Z,75.40
2019-03-20T00:11:17.156Z,75.50
2019-03-20T00:13:48.123Z,75.60
2019-03-20T00:16:18.863Z,75.50
2019-03-20T00:18:49.778Z,75.80
2019-03-20T00:21:22.338Z,76.00
2019-03-20T00:23:53.319Z,75.60
2019-03-20T00:26:24.054Z,75.80
2019-03-20T00:28:55.574Z,75.80
2019-03-20T00:31:26.346Z,76.10
2019-03-20T00:33:57.195Z,75.60
2019-03-20T00:36:28.442Z,75.80
2019-03-20T00:38:59.382Z,75.90
2019-03-20T00:41:30.014Z,75.90
2019-03-20T00:44:00.853Z,76.00
2019-03-20T00:46:31.570Z,75.80
2019-03-20T00:49:02.392Z,76.00
2019-03-20T00:51:33.454Z,76.20
2019-03-20T00:54:04.166Z,75.70
2019-03-20T00:56:35.196Z,76.10
2019-03-20T00:59:05.802Z,75.90
2019-03-20T01:01:41.211Z,76.20
2019-03-20T01:04:11.811Z,76.30
2019-03-20T01:06:42.494Z,76.80
2019-03-20T01:09:15.174Z,77.00
2019-03-20T01:11:45.886Z,77.70
2019-03-20T01:14:16.367Z,76.80
2019-03-20T01:16:47.702Z,76.80
2019-03-20T01:19:18.923Z,77.10
2019-03-20T01:21:49.742Z,76.80
2019-03-20T01:24:20.563Z,77.00
2019-03-20T01:26:51.491Z,76.80
2019-03-20T01:29:22.540Z,76.60
2019-03-20T01:31:54.633Z,76.90
2019-03-20T01:34:25.671Z,76.60
2019-03-20T01:36:56.622Z,76.80
2019-03-20T01:39:27.219Z,76.70
2019-03-20T01:41:57.748Z,76.40
2019-03-20T01:44:28.799Z,76.50
2019-03-20T01:46:59.594Z,76.80
2019-03-20T01:49:30.486Z,76.50
2019-03-20T01:52:01.642Z,76.30
2019-03-20T01:54:32.770Z,77.00
2019-03-20T01:57:03.830Z,76.00
2019-03-20T01:59:34.518Z,76.10
2019-03-20T02:02:06.130Z,75.90
2019-03-20T02:04:37.093Z,75.50
2019-03-20T02:07:07.822Z,75.20
2019-03-20T02:09:38.758Z,75.50
2019-03-20T02:12:09.794Z,75.80
2019-03-20T02:14:40.494Z,75.90
2019-03-20T02:17:11.578Z,75.70
2019-03-20T02:19:42.382Z,75.60
2019-03-20T02:22:13.567Z,75.80
2019-03-20T02:24:44.105Z,75.80
2019-03-20T02:27:14.810Z,75.70
2019-03-20T02:29:46.034Z,75.60
2019-03-20T02:32:16.684Z,75.80
2019-03-20T02:34:47.411Z,75.60
2019-03-20T02:37:18.235Z,75.40
2019-03-20T02:39:49.083Z,75.60
2019-03-20T02:42:19.678Z,75.60
2019-03-20T02:44:50.657Z,75.70
2019-03-20T02:47:21.377Z,76.00
2019-03-20T02:49:52.228Z,75.80
2019-03-20T02:52:23.264Z,76.20
2019-03-20T02:54:54.123Z,76.20
2019-03-20T02:57:24.739Z,76.40
2019-03-20T02:59:55.243Z,76.40
2019-03-20T03:02:26.363Z,76.60
2019-03-20T03:04:57.082Z,76.80
2019-03-20T03:07:27.740Z,77.10
2019-03-20T03:09:58.721Z,77.50
2019-03-20T03:12:30.053Z,77.60
2019-03-20T03:15:00.700Z,77.60
2019-03-20T03:17:31.890Z,78.30
2019-03-20T03:20:02.536Z,78.50
2019-03-20T03:22:34.523Z,78.50
2019-03-20T03:25:05.820Z,78.70
2019-03-20T03:27:36.746Z,78.90
2019-03-20T03:30:07.813Z,79.10
2019-03-20T03:32:38.605Z,79.50
2019-03-20T03:35:15.531Z,79.60
2019-03-20T03:37:41.899Z,80.10
2019-03-20T03:40:12.850Z,80.00
2019-03-20T03:42:43.990Z,80.40
2019-03-20T03:45:18.551Z,80.40
2019-03-20T03:47:49.396Z,80.80
2019-03-20T03:50:21.473Z,81.00
2019-03-20T03:52:52.297Z,81.40
2019-03-20T03:55:23.406Z,81.00
2019-03-20T03:57:54.264Z,81.40
2019-03-20T04:00:25.387Z,81.60
2019-03-20T04:02:56.000Z,81.60
2019-03-20T04:05:27.134Z,81.80
2019-03-20T04:07:58.209Z,81.80
2019-03-20T04:10:29.263Z,82.10
2019-03-20T04:13:00.195Z,82.10
2019-03-20T04:15:30.929Z,82.50
2019-03-20T04:18:01.664Z,82.80
2019-03-20T04:20:33.629Z,82.80
2019-03-20T04:23:04.298Z,83.30
2019-03-20T04:25:35.300Z,83.20
2019-03-20T04:28:05.903Z,83.50
2019-03-20T04:30:36.887Z,84.10
2019-03-20T04:33:07.622Z,84.30
2019-03-20T04:35:38.669Z,84.30
2019-03-20T04:38:09.751Z,84.50
2019-03-20T04:40:40.915Z,84.70
2019-03-20T04:43:11.670Z,84.70
2019-03-20T04:45:42.625Z,85.20
2019-03-20T04:48:13.664Z,85.40
2019-03-20T04:50:44.335Z,85.40
2019-03-20T04:53:15.462Z,85.60
2019-03-20T04:55:46.203Z,85.40
2019-03-20T04:58:17.119Z,85.90
2019-03-20T05:00:47.887Z,85.80
2019-03-20T05:03:18.795Z,86.50
2019-03-20T05:05:49.607Z,86.60
2019-03-20T05:08:20.208Z,86.60
2019-03-20T05:10:51.308Z,87.00
2019-03-20T05:13:22.109Z,87.50
2019-03-20T05:15:52.726Z,87.60
2019-03-20T05:18:23.917Z,87.60
2019-03-20T05:20:54.977Z,88.00
2019-03-20T05:23:25.611Z,88.60
2019-03-20T05:25:56.567Z,88.60
2019-03-20T05:28:27.216Z,88.50
2019-03-20T05:30:58.310Z,89.30
2019-03-20T05:33:29.421Z,89.50
2019-03-20T05:36:00.083Z,90.00
2019-03-20T05:38:31.030Z,90.10
2019-03-20T05:41:01.814Z,90.20
2019-03-20T05:43:32.535Z,90.30
2019-03-20T05:46:03.251Z,90.70
2019-03-20T05:48:34.469Z,90.90
2019-03-20T05:51:05.378Z,90.90
2019-03-20T05:53:36.422Z,91.40
2019-03-20T05:56:07.526Z,91.50
2019-03-20T05:58:38.216Z,91.90
2019-03-20T06:01:08.963Z,91.90
2019-03-20T06:03:39.851Z,92.20
2019-03-20T06:06:10.686Z,92.90
2019-03-20T06:08:41.466Z,93.10
2019-03-20T06:11:12.519Z,93.30
2019-03-20T06:13:43.434Z,93.70
2019-03-20T06:16:14.599Z,94.10
2019-03-20T06:18:46.559Z,94.40
2019-03-20T06:21:17.341Z,94.70
2019-03-20T06:23:48.027Z,95.00
2019-03-20T06:26:19.123Z,95.50
2019-03-20T06:28:49.801Z,95.60
2019-03-20T06:31:21.196Z,96.00
2019-03-20T06:33:52.011Z,96.10
2019-03-20T06:36:22.687Z,96.60
2019-03-20T06:38:53.398Z,96.70
2019-03-20T06:41:27.000Z,97.10
2019-03-20T06:43:57.998Z,97.40
2019-03-20T06:46:29.242Z,98.00
2019-03-20T06:48:59.890Z,98.00
2019-03-20T06:51:31.053Z,98.30
2019-03-20T06:54:02.021Z,98.70
2019-03-20T06:56:33.159Z,98.40
2019-03-20T06:59:39.715Z,98.40
2019-03-20T07:02:10.758Z,98.60
2019-03-20T07:05:09.980Z,98.50
2019-03-20T07:07:44.426Z,99.20
2019-03-20T07:10:37.359Z,99.20
2019-03-20T07:13:08.278Z,99.20
2019-03-20T07:15:40.603Z,99.40
2019-03-20T07:18:11.674Z,99.60
2019-03-20T07:20:44.350Z,99.90
2019-03-20T07:23:15.566Z,99.90
2019-03-20T07:25:46.667Z,99.90
2019-03-20T07:28:17.363Z,99.90
2019-03-20T07:30:48.594Z,99.70
2019-03-20T07:33:19.762Z,99.90
2019-03-20T07:35:50.475Z,99.90
2019-03-20T07:38:22.120Z,99.90
2019-03-20T07:40:53.024Z,99.90
2019-03-20T07:43:23.914Z,99.90
2019-03-20T07:45:54.942Z,99.90
2019-03-20T07:48:26.483Z,99.90
2019-03-20T07:50:57.469Z,99.90
2019-03-20T07:53:28.169Z,99.90
2019-03-20T07:55:59.539Z,99.90
2019-03-20T07:58:30.622Z,99.90
2019-03-20T08:01:01.198Z,99.90
2019-03-20T08:03:32.059Z,99.90
2019-03-20T08:06:03.869Z,99.90
2019-03-20T08:08:34.898Z,99.90
2019-03-20T08:11:06.179Z,99.90
2019-03-20T08:13:37.003Z,99.90
2019-03-20T08:16:07.600Z,99.90
2019-03-20T08:18:38.075Z,99.90
2019-03-20T08:21:09.045Z,99.90
2019-03-20T08:23:39.760Z,99.90
2019-03-20T08:26:10.849Z,99.90
2019-03-20T08:28:42.408Z,99.90
2019-03-20T08:31:13.163Z,99.90
2019-03-20T08:33:44.067Z,99.90
2019-03-20T08:36:14.843Z,99.90
2019-03-20T08:38:45.470Z,99.90
2019-03-20T08:41:16.369Z,99.90
2019-03-20T08:43:47.251Z,99.90
2019-03-20T08:46:17.904Z,99.90
2019-03-20T08:48:48.800Z,99.90
2019-03-20T08:51:19.548Z,99.90
2019-03-20T08:53:50.132Z,99.90
2019-03-20T08:56:21.146Z,99.90
2019-03-20T08:58:52.352Z,99.90
2019-03-20T09:01:28.635Z,99.90
2019-03-20T09:03:55.742Z,99.90
2019-03-20T09:06:26.882Z,99.90
2019-03-20T09:08:57.683Z,99.90
2019-03-20T09:11:28.668Z,99.90
2019-03-20T09:13:59.843Z,99.90
2019-03-20T09:16:31.178Z,99.90
2019-03-20T09:19:01.842Z,99.90
2019-03-20T09:21:32.632Z,99.90
2019-03-20T09:24:03.675Z,99.90
2019-03-20T09:26:34.926Z,99.90
2019-03-20T09:29:06.292Z,99.90
2019-03-20T09:31:37.170Z,99.90
2019-03-20T09:34:08.022Z,99.90
2019-03-20T09:36:43.362Z,99.90
2019-03-20T09:39:11.378Z,99.90
2019-03-20T09:41:42.010Z,99.90
2019-03-20T09:44:13.162Z,99.90
2019-03-20T09:46:44.042Z,99.90
2019-03-20T09:49:14.940Z,99.90
2019-03-20T09:51:45.934Z,99.90
2019-03-20T09:54:16.687Z,99.90
2019-03-20T09:56:47.406Z,99.90
2019-03-20T09:59:19.958Z,99.90
2019-03-20T10:01:50.672Z,99.90
2019-03-20T10:04:21.660Z,99.90
2019-03-20T10:06:53.806Z,99.90
2019-03-20T10:09:24.469Z,99.90
2019-03-20T10:11:57.482Z,99.90
2019-03-20T10:14:28.491Z,99.90
2019-03-20T10:16:59.574Z,99.90
2019-03-20T10:19:30.230Z,99.90
2019-03-20T10:22:01.219Z,99.90
2019-03-20T10:24:32.458Z,99.90
2019-03-20T10:27:03.571Z,99.90
2019-03-20T10:29:35.581Z,99.90
2019-03-20T10:32:06.370Z,99.90
2019-03-20T10:34:39.647Z,99.90
2019-03-20T10:37:09.831Z,99.90
2019-03-20T10:39:40.747Z,99.90
2019-03-20T10:42:11.507Z,99.90
2019-03-20T10:44:42.557Z,99.90
2019-03-20T10:47:13.454Z,99.90
2019-03-20T10:49:44.516Z,98.60
2019-03-20T10:52:15.405Z,95.40
2019-03-20T10:54:45.967Z,94.40
2019-03-20T10:57:17.939Z,94.60
2019-03-20T10:59:48.651Z,94.60
2019-03-20T11:02:19.926Z,94.90
2019-03-20T11:04:50.538Z,93.50
2019-03-20T11:07:21.511Z,92.00
2019-03-20T11:09:52.460Z,92.10
2019-03-20T11:12:23.164Z,92.30
2019-03-20T11:14:53.886Z,92.20
2019-03-20T11:17:25.042Z,90.80
2019-03-20T11:19:56.388Z,90.40
2019-03-20T11:22:27.258Z,90.20
2019-03-20T11:24:59.181Z,87.60
2019-03-20T11:27:33.114Z,80.20
2019-03-20T11:30:03.144Z,75.30
2019-03-20T11:32:33.817Z,69.20
2019-03-20T11:35:04.948Z,69.70
2019-03-20T11:37:35.666Z,70.50
2019-03-20T11:40:08.609Z,71.80
2019-03-20T11:42:40.817Z,72.10
2019-03-20T11:45:11.936Z,74.40
2019-03-20T11:47:43.023Z,74.20
2019-03-20T11:50:16.914Z,74.30
2019-03-20T11:52:47.727Z,71.10
2019-03-20T11:55:18.805Z,68.80
2019-03-20T11:57:49.770Z,67.30
2019-03-20T12:00:20.843Z,66.30
2019-03-20T12:02:51.823Z,65.60
2019-03-20T12:05:22.866Z,66.60
2019-03-20T12:07:53.894Z,67.60
2019-03-20T12:10:25.107Z,69.00
2019-03-20T12:12:56.251Z,71.00
2019-03-20T12:15:27.986Z,71.80
2019-03-20T12:17:58.675Z,72.30
2019-03-20T12:20:29.913Z,72.90
2019-03-20T12:23:01.157Z,72.80
2019-03-20T12:25:31.907Z,71.90
2019-03-20T12:28:02.635Z,71.90
2019-03-20T12:30:33.887Z,71.80
2019-03-20T12:33:05.337Z,72.90
2019-03-20T12:35:36.275Z,73.00
2019-03-20T12:38:14.310Z,73.10
2019-03-20T12:40:39.794Z,73.30
2019-03-20T12:43:10.850Z,74.50
2019-03-20T12:45:41.845Z,74.70
2019-03-20T12:48:12.606Z,73.70
2019-03-20T12:50:43.474Z,74.00
2019-03-20T12:53:14.937Z,74.90
2019-03-20T12:55:45.714Z,75.90
2019-03-20T12:58:16.698Z,76.10
2019-03-20T13:03:18.291Z,74.70
2019-03-20T13:05:49.195Z,74.70
2019-03-20T13:08:20.197Z,75.10
2019-03-20T13:10:51.821Z,74.70
2019-03-20T13:13:22.546Z,74.70
2019-03-20T13:15:54.650Z,74.50
2019-03-20T13:18:25.210Z,74.30
2019-03-20T13:20:56.012Z,74.30
2019-03-20T13:23:28.940Z,75.30
2019-03-20T13:26:00.939Z,75.60
2019-03-20T13:28:32.698Z,75.20
2019-03-20T13:31:07.575Z,74.50
2019-03-20T13:33:41.046Z,75.10
2019-03-20T13:36:11.933Z,73.90
2019-03-20T13:38:43.142Z,74.30
2019-03-20T13:41:13.692Z,74.50
2019-03-20T13:43:44.335Z,74.30
2019-03-20T13:46:15.226Z,74.00
2019-03-20T13:48:46.119Z,74.70
2019-03-20T13:51:17.296Z,74.80
2019-03-20T13:53:48.215Z,75.10
2019-03-20T13:56:18.886Z,75.60
2019-03-20T13:58:52.165Z,76.30
2019-03-20T14:01:23.222Z,75.50
2019-03-20T14:03:53.766Z,75.60
2019-03-20T14:06:24.831Z,75.40
2019-03-20T14:08:55.675Z,76.20
2019-03-20T14:11:26.722Z,76.10
2019-03-20T14:13:57.726Z,75.60
2019-03-20T14:16:28.702Z,76.60
2019-03-20T14:18:59.860Z,76.20
2019-03-20T14:21:30.574Z,75.40
2019-03-20T14:24:01.637Z,75.60
2019-03-20T14:26:32.460Z,74.50
2019-03-20T14:29:03.537Z,74.60
2019-03-20T14:31:34.129Z,74.90
2019-03-20T14:34:05.003Z,74.80
2019-03-20T14:36:35.637Z,75.00
2019-03-20T14:39:08.777Z,74.50
2019-03-20T14:41:39.883Z,74.20
2019-03-20T14:44:10.556Z,73.30
2019-03-20T14:46:41.862Z,74.60
2019-03-20T14:49:12.538Z,74.20
2019-03-20T14:51:43.593Z,74.30
2019-03-20T14:54:14.638Z,74.30
2019-03-20T14:56:45.362Z,74.00
2019-03-20T14:59:16.132Z,74.30
2019-03-20T15:01:47.154Z,74.50
2019-03-20T15:04:18.105Z,73.70
2019-03-20T15:06:48.911Z,74.40
2019-03-20T15:09:19.605Z,73.40
2019-03-20T15:11:50.246Z,73.90
2019-03-20T15:14:21.806Z,73.70
2019-03-20T15:16:52.566Z,72.90
2019-03-20T15:19:23.754Z,73.30
2019-03-20T15:21:54.796Z,73.70
2019-03-20T15:24:26.453Z,73.00
2019-03-20T15:26:56.927Z,72.70
2019-03-20T15:29:27.946Z,72.10
2019-03-20T15:31:58.602Z,72.10
2019-03-20T15:34:29.373Z,71.20
2019-03-20T15:37:00.255Z,70.80
2019-03-20T15:39:31.259Z,70.70
2019-03-20T15:42:02.175Z,71.10
2019-03-20T15:44:33.072Z,70.40
2019-03-20T15:47:04.066Z,70.90
2019-03-20T15:49:34.974Z,71.60
2019-03-20T15:52:06.087Z,70.40
2019-03-20T15:54:36.773Z,72.10
2019-03-20T15:57:07.829Z,70.20
2019-03-20T15:59:38.630Z,71.10
2019-03-20T16:02:09.713Z,71.40
2019-03-20T16:04:40.405Z,71.60
2019-03-20T16:07:11.214Z,71.60
2019-03-20T16:09:42.534Z,70.90
2019-03-20T16:12:13.334Z,71.90
2019-03-20T16:14:44.350Z,71.60
2019-03-20T16:17:15.222Z,72.00
2019-03-20T16:19:45.963Z,72.10
2019-03-20T16:22:16.631Z,72.10
2019-03-20T16:24:47.420Z,72.50
2019-03-20T16:27:18.386Z,72.60
2019-03-20T16:29:49.146Z,72.70
2019-03-20T16:32:20.144Z,72.90
2019-03-20T16:34:50.894Z,72.80
2019-03-20T16:37:21.852Z,73.70
2019-03-20T16:39:52.747Z,73.60
2019-03-20T16:42:23.714Z,74.70
2019-03-20T16:44:54.536Z,75.60
2019-03-20T16:47:26.823Z,75.40
2019-03-20T16:49:57.608Z,75.70
2019-03-20T16:52:28.637Z,76.20
2019-03-20T16:54:59.341Z,75.80
2019-03-20T16:57:30.158Z,76.60
2019-03-20T17:00:01.081Z,75.50
2019-03-20T17:02:32.258Z,76.60
2019-03-20T17:05:04.337Z,78.40
2019-03-20T17:07:35.115Z,78.50
2019-03-20T17:10:09.690Z,79.90
2019-03-20T17:12:40.610Z,80.30
2019-03-20T17:15:15.172Z,79.30
2019-03-20T17:17:46.083Z,80.10
2019-03-20T17:20:17.323Z,79.10
2019-03-20T17:22:48.514Z,80.00
2019-03-20T17:25:22.650Z,78.40
2019-03-20T17:27:53.844Z,80.60
2019-03-20T17:30:26.531Z,80.80
2019-03-20T17:32:57.483Z,81.40
2019-03-20T17:35:29.414Z,81.30
2019-03-20T17:38:00.174Z,81.70
2019-03-20T17:40:30.824Z,81.30
2019-03-20T17:43:01.571Z,81.00
2019-03-20T17:45:33.084Z,82.20
2019-03-20T17:48:03.866Z,81.40
2019-03-20T17:50:35.014Z,82.20
2019-03-20T17:53:06.073Z,82.00
2019-03-20T17:55:36.935Z,82.20
2019-03-20T17:58:07.958Z,81.90
2019-03-20T18:00:41.154Z,81.90
2019-03-20T18:03:11.908Z,82.10
2019-03-20T18:05:42.689Z,81.40
2019-03-20T18:08:13.640Z,81.20
2019-03-20T18:10:44.462Z,79.70
2019-03-20T18:13:15.652Z,80.30
2019-03-20T18:15:46.413Z,79.80
2019-03-20T18:18:18.521Z,80.90
2019-03-20T18:20:48.951Z,78.90
2019-03-20T18:23:20.360Z,78.30
2019-03-20T18:25:51.197Z,79.10
2019-03-20T18:28:22.022Z,78.80
2019-03-20T18:30:52.950Z,78.90
2019-03-20T18:33:23.677Z,78.70
2019-03-20T18:35:54.375Z,78.30
2019-03-20T18:38:26.062Z,78.10
2019-03-20T18:40:56.566Z,77.00
2019-03-20T18:43:27.531Z,77.50
2019-03-20T18:45:59.374Z,76.90
2019-03-20T18:48:30.011Z,76.70
2019-03-20T18:51:01.129Z,76.80
2019-03-20T18:53:32.133Z,76.90
2019-03-20T18:56:03.080Z,77.90
2019-03-20T18:58:33.650Z,77.30
2019-03-20T19:01:04.758Z,78.00
2019-03-20T19:03:36.718Z,77.90
2019-03-20T19:06:10.135Z,78.30
2019-03-20T19:08:41.146Z,78.70
2019-03-20T19:11:11.854Z,78.90
2019-03-20T19:13:42.518Z,79.50
2019-03-20T19:16:13.472Z,79.50
2019-03-20T19:18:44.173Z,79.70
2019-03-20T19:21:15.334Z,79.40
2019-03-20T19:23:46.030Z,78.20
2019-03-20T19:26:17.111Z,78.30
2019-03-20T19:28:47.711Z,78.20
2019-03-20T19:31:18.760Z,78.00
2019-03-20T19:33:50.278Z,78.50
2019-03-20T19:36:20.932Z,77.70
2019-03-20T19:38:51.661Z,78.20
2019-03-20T19:41:22.276Z,77.90
2019-03-20T19:43:53.076Z,77.80
2019-03-20T19:46:24.429Z,77.70
2019-03-20T19:48:55.218Z,78.80
2019-03-20T19:51:26.082Z,78.80
2019-03-20T19:53:56.902Z,79.50
2019-03-20T19:56:27.572Z,79.00
2019-03-20T19:58:58.590Z,80.10
2019-03-20T20:01:29.503Z,79.20
2019-03-20T20:04:00.590Z,79.30
2019-03-20T20:06:31.167Z,79.30
2019-03-20T20:09:01.949Z,78.70
2019-03-20T20:11:33.598Z,78.80
2019-03-20T20:14:04.446Z,78.70
2019-03-20T20:16:35.407Z,79.10
2019-03-20T20:19:06.894Z,79.70
2019-03-20T20:21:37.420Z,79.10
2019-03-20T20:24:08.182Z,79.40
2019-03-20T20:26:39.290Z,79.00
2019-03-20T20:29:10.416Z,80.30
2019-03-20T20:31:41.172Z,79.30
2019-03-20T20:34:12.142Z,79.70
2019-03-20T20:36:43.206Z,80.20
2019-03-20T20:39:13.994Z,79.50
2019-03-20T20:41:44.844Z,80.00
2019-03-20T20:44:15.807Z,79.40
2019-03-20T20:46:46.681Z,79.70
2019-03-20T20:49:17.541Z,79.10
2019-03-20T20:51:48.578Z,80.20
2019-03-20T20:54:19.442Z,79.90
2019-03-20T20:56:50.618Z,79.70
2019-03-20T20:59:21.378Z,80.20
2019-03-20T21:01:52.548Z,80.30
2019-03-20T21:04:23.182Z,79.90
2019-03-20T21:06:53.916Z,79.40
2019-03-20T21:09:26.053Z,80.10
2019-03-20T21:11:57.043Z,79.10
2019-03-20T21:14:27.771Z,79.00
2019-03-20T21:16:59.855Z,78.70
2019-03-20T21:19:31.754Z,78.40
2019-03-20T21:22:40.698Z,78.20
2019-03-20T21:25:12.266Z,78.00
2019-03-20T21:28:22.022Z,78.10
2019-03-20T21:31:07.671Z,78.30
2019-03-20T21:34:31.385Z,77.70
2019-03-20T21:37:25.452Z,78.00
2019-03-20T21:39:56.935Z,78.00
2019-03-20T21:43:12.552Z,78.00
2019-03-20T21:46:03.814Z,77.60
2019-03-20T21:48:34.974Z,77.20
2019-03-20T21:51:14.320Z,78.10
2019-03-20T21:54:28.823Z,77.90
2019-03-20T21:57:52.269Z,78.00
2019-03-20T22:01:11.063Z,78.10
2019-03-20T22:03:43.814Z,78.40
2019-03-20T22:06:50.107Z,78.90
2019-03-20T22:10:15.107Z,78.60
2019-03-20T22:13:26.612Z,78.90
2019-03-20T22:16:40.458Z,79.30
2019-03-20T22:19:48.155Z,79.60
2019-03-20T22:22:54.739Z,79.40
2019-03-20T22:25:55.846Z,79.60
2019-03-20T22:28:58.738Z,79.50
2019-03-20T22:31:30.470Z,79.30
2019-03-20T22:34:36.898Z,78.90
2019-03-20T22:37:08.339Z,78.70
2019-03-20T22:40:27.465Z,78.80
2019-03-20T22:43:15.544Z,78.70
2019-03-20T22:46:36.712Z,77.90
2019-03-20T22:49:41.698Z,79.10
2019-03-20T22:52:47.774Z,79.40
2019-03-20T22:55:41.270Z,79.10
2019-03-20T22:58:42.940Z,79.10
2019-03-20T23:01:20.994Z,79.60
2019-03-20T23:03:57.015Z,79.70
2019-03-20T23:06:28.150Z,79.20
2019-03-20T23:08:59.458Z,79.10
2019-03-20T23:11:30.982Z,79.10
2019-03-20T23:14:02.166Z,78.70
2019-03-20T23:16:33.326Z,79.20
2019-03-20T23:19:04.879Z,78.60
2019-03-20T23:21:36.597Z,78.90
2019-03-20T23:24:07.724Z,79.10
2019-03-20T23:26:39.338Z,78.90
2019-03-20T23:29:12.095Z,78.70
2019-03-20T23:31:43.346Z,78.30
2019-03-20T23:34:15.926Z,78.50
2019-03-20T23:36:47.378Z,78.60
2019-03-20T23:39:18.538Z,78.80
2019-03-20T23:41:49.935Z,78.50
2019-03-20T23:44:21.399Z,78.90
2019-03-20T23:46:53.089Z,78.90
2019-03-20T23:49:24.906Z,78.50
2019-03-20T23:51:56.242Z,79.00
2019-03-20T23:54:48.630Z,78.70
2019-03-20T23:57:20.376Z,78.60
2019-03-20T23:59:52.316Z,78.70
